Time;durP1;ratioP1;P1;durP2;ratioP2;P2;SDS_P1;SDS_P2;PMS_P1;PMS_P2;Temp;Humidity;BMP_temperature;BMP_pressure;BME280_temperature;BME280_humidity;BME280_pressure;Samples;Min_cycle;Max_cycle;Signal;HPM_P1;HPM_P2
2021/10/14 03:49:30;;;;;;;8.98;5.93;;;;;;;5.13;85.79;100932.59;1088012;46;20015;-76
2021/10/14 03:50:31;;;;;;;9.40;6.30;;;;;;;5.17;85.56;100930.63;1088036;54;20050;-76
2021/10/14 03:51:36;;;;;;;10.73;6.40;;;;;;;5.19;85.35;100934.91;1088017;54;20034;-78
2021/10/14 03:52:38;;;;;;;8.57;6.38;;;;;;;5.18;85.32;100937.66;1087908;54;20715;-76
2021/10/14 03:53:44;;;;;;;11.35;7.03;;;;;;;5.24;85.43;100932.81;1088084;54;20030;-77
2021/10/14 03:54:47;;;;;;;9.88;6.85;;;;;;;5.28;85.19;100934.38;1088006;54;20050;-76
2021/10/14 03:55:51;;;;;;;11.15;6.45;;;;;;;5.35;85.10;100936.66;1088087;54;20126;-76
2021/10/14 03:56:54;;;;;;;8.32;5.97;;;;;;;5.42;84.75;100938.88;1089420;46;20049;-77
2021/10/14 03:57:58;;;;;;;8.05;6.10;;;;;;;5.39;84.98;100936.38;1088228;54;20037;-76
2021/10/14 03:59:02;;;;;;;9.75;5.70;;;;;;;5.43;84.88;100943.22;1088143;54;20031;-78
2021/10/14 04:00:05;;;;;;;10.15;6.18;;;;;;;5.44;84.73;100939.63;1088209;54;20046;-77
2021/10/14 04:01:10;;;;;;;8.88;6.18;;;;;;;5.49;84.75;100942.00;1088207;54;20034;-76
2021/10/14 04:02:11;;;;;;;9.55;6.25;;;;;;;5.45;84.52;100940.47;1088284;54;20049;-77
2021/10/14 04:03:20;;;;;;;9.65;6.07;;;;;;;5.46;84.61;100943.06;1088141;54;20018;-76
2021/10/14 04:04:23;;;;;;;9.90;7.28;;;;;;;5.40;84.73;100942.56;1088592;46;20054;-77
2021/10/14 04:05:31;;;;;;;10.15;6.85;;;;;;;5.35;84.71;100945.47;1088152;54;20091;-76
2021/10/14 04:06:33;;;;;;;9.35;6.78;;;;;;;5.33;84.86;100944.69;1088134;54;20564;-77
2021/10/14 04:07:39;;;;;;;10.57;6.60;;;;;;;5.33;84.76;100935.91;1088242;54;20042;-76
2021/10/14 04:08:41;;;;;;;9.27;5.90;;;;;;;5.36;85.04;100941.88;1088203;54;20042;-76
2021/10/14 04:09:47;;;;;;;9.95;6.60;;;;;;;5.44;84.59;100939.63;1088120;54;20031;-76
2021/10/14 04:11:01;;;;;;;10.52;5.95;;;;;;;5.38;84.23;100945.31;1088295;54;20133;-76
2021/10/14 04:12:04;;;;;;;8.50;6.13;;;;;;;5.43;84.52;100942.38;1090773;46;20053;-76
2021/10/14 04:13:08;;;;;;;9.63;6.30;;;;;;;5.42;84.76;100952.13;1089323;46;20065;-76
2021/10/14 04:14:10;;;;;;;8.95;6.35;;;;;;;5.37;84.66;100935.66;1088041;54;20034;-77
2021/10/14 04:15:14;;;;;;;9.50;6.63;;;;;;;5.36;84.81;100938.34;1088151;54;20042;-76
2021/10/14 04:16:17;;;;;;;9.18;6.57;;;;;;;5.38;84.64;100940.00;1087911;54;20030;-77
2021/10/14 04:17:21;;;;;;;10.32;6.30;;;;;;;5.43;84.51;100939.72;1088046;54;20033;-76
2021/10/14 04:18:22;;;;;;;11.90;7.03;;;;;;;5.42;84.65;100946.81;1087996;54;20034;-76
2021/10/14 04:19:27;;;;;;;11.20;6.93;;;;;;;5.44;84.71;100942.28;1087852;54;20031;-76
2021/10/14 04:20:31;;;;;;;9.27;6.30;;;;;;;5.55;84.27;100943.47;1087992;54;20034;-76
2021/10/14 04:21:38;;;;;;;10.88;6.45;;;;;;;5.52;84.38;100940.97;1088211;54;20037;-77
2021/10/14 04:22:39;;;;;;;11.30;6.60;;;;;;;5.48;84.51;100950.91;1092979;39;20559;-76
2021/10/14 04:23:44;;;;;;;9.43;6.50;;;;;;;5.49;84.47;100946.44;1088437;54;20057;-76
2021/10/14 04:24:47;;;;;;;8.82;6.03;;;;;;;5.49;84.68;100949.97;1088341;54;20042;-76
2021/10/14 04:25:53;;;;;;;8.60;6.18;;;;;;;5.51;84.51;100949.88;1088198;54;20042;-76
2021/10/14 04:26:54;;;;;;;9.82;6.13;;;;;;;5.53;84.38;100946.19;1088263;54;20030;-77
2021/10/14 04:27:58;;;;;;;9.13;6.20;;;;;;;5.57;84.51;100952.19;1088439;54;20030;-76
2021/10/14 04:29:00;;;;;;;8.77;6.18;;;;;;;5.56;84.31;100948.66;1088365;47;20442;-77
2021/10/14 04:30:08;;;;;;;8.70;5.95;;;;;;;5.58;83.98;100951.22;1090930;39;20909;-78
2021/10/14 04:31:12;;;;;;;9.35;6.30;;;;;;;5.65;84.06;100946.41;1088348;54;20022;-77
2021/10/14 04:32:16;;;;;;;9.73;6.30;;;;;;;5.66;83.99;100949.00;1087937;54;20705;-76
2021/10/14 04:33:17;;;;;;;9.00;6.75;;;;;;;5.66;83.81;100948.13;1087913;54;20046;-76
2021/10/14 04:34:22;;;;;;;8.63;6.57;;;;;;;5.65;84.18;100949.94;1087853;54;20090;-76
2021/10/14 04:35:23;;;;;;;10.30;6.60;;;;;;;5.65;84.02;100949.06;1087882;54;20054;-76
2021/10/14 04:36:31;;;;;;;10.40;6.95;;;;;;;5.61;84.20;100945.75;1087950;54;20041;-76
2021/10/14 04:37:32;;;;;;;9.70;6.70;;;;;;;5.57;84.10;100944.22;1087769;54;20031;-77
2021/10/14 04:38:37;;;;;;;9.70;6.55;;;;;;;5.61;84.31;100943.09;1087919;54;20045;-76
2021/10/14 04:39:39;;;;;;;8.75;5.95;;;;;;;5.63;83.91;100942.03;1087820;54;20034;-76
2021/10/14 04:40:43;;;;;;;12.15;6.57;;;;;;;5.70;83.59;100947.00;1087774;54;20034;-76
2021/10/14 04:41:47;;;;;;;9.70;6.75;;;;;;;5.68;83.83;100947.06;1087795;54;20045;-77
2021/10/14 04:42:49;;;;;;;10.13;6.60;;;;;;;5.76;83.76;100954.59;1089840;39;20606;-77
2021/10/14 04:43:53;;;;;;;9.63;6.10;;;;;;;5.78;83.72;100948.25;1087861;54;21156;-76
2021/10/14 04:44:55;;;;;;;9.45;6.07;;;;;;;5.83;83.56;100941.81;1087865;54;20038;-75
2021/10/14 04:45:59;;;;;;;11.07;7.20;;;;;;;5.77;83.70;100946.53;1087937;54;20658;-77
2021/10/14 04:47:01;;;;;;;9.50;7.10;;;;;;;5.74;83.79;100946.72;1087780;54;20045;-76
2021/10/14 04:48:06;;;;;;;8.27;5.80;;;;;;;5.77;83.38;100945.69;1087963;54;20037;-76
2021/10/14 04:49:10;;;;;;;9.07;5.75;;;;;;;5.73;83.47;100946.81;1087799;54;20045;-77
2021/10/14 04:50:12;;;;;;;8.80;6.35;;;;;;;5.72;83.69;100948.63;1087211;54;20042;-76
2021/10/14 04:51:16;;;;;;;8.05;5.90;;;;;;;5.73;83.57;100934.41;1087910;54;20034;-77
2021/10/14 04:52:20;;;;;;;10.05;6.53;;;;;;;5.66;83.73;100941.03;1087776;54;20046;-77
2021/10/14 04:53:24;;;;;;;10.10;6.18;;;;;;;5.73;83.73;100937.06;1087838;54;20038;-76
2021/10/14 04:54:26;;;;;;;9.85;6.65;;;;;;;5.74;83.71;100936.13;1087714;54;20034;-77
2021/10/14 04:55:30;;;;;;;8.77;6.05;;;;;;;5.77;83.29;100927.94;1087683;54;20038;-76
2021/10/14 04:56:32;;;;;;;11.05;6.68;;;;;;;5.78;83.50;100942.94;1087773;54;20030;-76
2021/10/14 04:57:36;;;;;;;9.90;5.63;;;;;;;5.78;83.31;100931.47;1087647;54;20062;-75
2021/10/14 04:58:38;;;;;;;8.98;6.18;;;;;;;5.81;83.54;100936.56;1087724;54;20035;-77
2021/10/14 04:59:42;;;;;;;8.05;5.75;;;;;;;5.88;83.36;100937.06;1087766;54;20034;-76
2021/10/14 05:00:44;;;;;;;8.50;6.28;;;;;;;5.88;83.02;100945.03;1087815;54;20034;-76
2021/10/14 05:01:48;;;;;;;11.15;6.72;;;;;;;5.92;83.18;100943.91;1087857;54;20030;-76
2021/10/14 05:02:50;;;;;;;9.30;5.70;;;;;;;5.98;83.10;100938.22;1087763;54;20694;-76
2021/10/14 05:03:54;;;;;;;8.77;6.32;;;;;;;5.99;82.67;100942.63;1087702;54;21308;-77
2021/10/14 05:04:55;;;;;;;8.45;5.43;;;;;;;6.05;82.79;100944.06;1088216;39;20566;-76
2021/10/14 05:05:59;;;;;;;8.80;5.35;;;;;;;6.07;82.50;100937.69;1087849;54;20030;-76
2021/10/14 05:07:01;;;;;;;8.60;5.43;;;;;;;6.08;82.28;100942.06;1087729;54;20042;-77
2021/10/14 05:08:08;;;;;;;8.35;5.60;;;;;;;6.06;82.61;100943.09;1087793;54;20034;-77
2021/10/14 05:09:10;;;;;;;8.88;5.95;;;;;;;6.06;82.63;100941.28;1088698;46;20638;-75
2021/10/14 05:10:14;;;;;;;9.13;5.97;;;;;;;6.11;82.45;100948.13;1092863;39;20562;-76
2021/10/14 05:11:16;;;;;;;7.93;5.68;;;;;;;6.05;82.80;100941.41;1087841;54;20058;-76
2021/10/14 05:12:20;;;;;;;7.90;5.50;;;;;;;6.03;82.49;100945.94;1087701;54;20053;-76
2021/10/14 05:13:22;;;;;;;10.63;6.53;;;;;;;6.02;82.68;100939.78;1087774;54;20034;-76
2021/10/14 05:14:26;;;;;;;8.70;5.80;;;;;;;6.01;82.90;100939.88;1087763;54;20030;-76
2021/10/14 05:15:28;;;;;;;7.78;5.43;;;;;;;6.03;82.83;100937.97;1087707;54;20946;-79
2021/10/14 05:16:33;;;;;;;8.05;6.13;;;;;;;5.99;82.75;100942.63;1087904;54;20054;-76
2021/10/14 05:17:35;;;;;;;9.35;6.55;;;;;;;6.03;82.76;100937.97;1087845;54;20034;-75
2021/10/14 05:18:39;;;;;;;9.23;6.05;;;;;;;5.96;82.80;100940.09;1088346;46;23999;-75
2021/10/14 05:19:40;;;;;;;10.13;6.40;;;;;;;6.01;83.04;100938.06;1087734;54;20031;-76
2021/10/14 05:20:45;;;;;;;11.05;6.72;;;;;;;5.92;83.21;100928.00;1087599;54;20050;-76
2021/10/14 05:21:46;;;;;;;11.30;6.53;;;;;;;5.88;83.42;100931.75;1090460;39;20703;-76
2021/10/14 05:22:51;;;;;;;10.68;6.45;;;;;;;5.87;83.57;100925.63;1087792;54;20146;-75
2021/10/14 05:23:59;;;;;;;11.68;6.47;;;;;;;5.86;83.80;100926.56;1087860;54;20034;-75
2021/10/14 05:25:03;;;;;;;9.48;6.28;;;;;;;5.88;83.43;100921.16;1087756;54;20057;-76
2021/10/14 05:26:04;;;;;;;10.15;6.38;;;;;;;5.88;83.48;100927.31;1087670;54;20046;-75
2021/10/14 05:27:08;;;;;;;9.32;6.57;;;;;;;5.85;83.58;100927.50;1091867;39;20547;-76
2021/10/14 05:28:13;;;;;;;11.13;6.32;;;;;;;5.88;83.71;100926.44;1090114;39;20539;-75
2021/10/14 05:29:14;;;;;;;9.50;6.40;;;;;;;5.87;83.68;100935.34;1087738;54;20162;-76
2021/10/14 05:30:20;;;;;;;9.38;6.53;;;;;;;5.85;83.78;100935.47;1087794;54;20038;-76
2021/10/14 05:31:25;;;;;;;9.77;6.55;;;;;;;5.83;83.75;100931.19;1087605;54;20185;-76
2021/10/14 05:32:26;;;;;;;9.30;6.65;;;;;;;5.86;83.78;100933.66;1087764;54;20035;-75
2021/10/14 05:33:30;;;;;;;10.00;6.50;;;;;;;5.82;84.09;100926.84;1088497;31;20639;-76
2021/10/14 05:34:35;;;;;;;11.65;6.65;;;;;;;5.82;83.99;100922.38;1087708;54;20034;-76
2021/10/14 05:35:40;;;;;;;11.55;7.10;;;;;;;5.77;84.05;100927.94;1087558;54;20038;-75
2021/10/14 05:36:41;;;;;;;9.38;5.93;;;;;;;5.86;83.88;100926.56;1087666;54;20038;-75
2021/10/14 05:37:46;;;;;;;9.15;6.20;;;;;;;5.83;84.01;100925.91;1087833;54;20049;-76
2021/10/14 05:38:47;;;;;;;10.32;6.88;;;;;;;5.87;83.86;100930.06;1087728;54;20678;-75
2021/10/14 05:39:54;;;;;;;10.00;6.53;;;;;;;5.88;83.62;100931.75;1087681;54;20118;-75
2021/10/14 05:40:59;;;;;;;9.60;6.70;;;;;;;5.93;83.61;100933.19;1087611;54;20030;-75
2021/10/14 05:42:00;;;;;;;11.25;6.70;;;;;;;5.89;83.63;100934.34;1087706;54;20066;-78
2021/10/14 05:43:05;;;;;;;8.35;6.13;;;;;;;5.90;83.33;100935.19;1087739;54;20011;-76
2021/10/14 05:44:07;;;;;;;9.70;5.95;;;;;;;5.97;83.49;100936.50;1087777;54;20041;-76
2021/10/14 05:45:13;;;;;;;10.57;6.18;;;;;;;5.89;83.58;100934.34;1087600;54;20030;-75
2021/10/14 05:46:15;;;;;;;8.13;5.72;;;;;;;5.94;83.49;100934.06;1087827;54;20098;-75
2021/10/14 05:47:20;;;;;;;11.57;6.97;;;;;;;5.92;83.63;100939.44;1087689;54;20034;-75
2021/10/14 05:48:24;;;;;;;8.68;6.28;;;;;;;5.96;83.33;100933.97;1087836;54;20052;-78
2021/10/14 05:49:26;;;;;;;9.55;6.40;;;;;;;5.91;83.36;100927.13;1087714;54;20034;-76
2021/10/14 05:50:30;;;;;;;10.30;6.80;;;;;;;5.86;83.54;100936.31;1087371;54;20034;-76
2021/10/14 05:51:32;;;;;;;9.77;6.78;;;;;;;5.84;83.63;100930.25;1087711;54;20053;-77
2021/10/14 05:52:36;;;;;;;10.85;6.40;;;;;;;5.84;83.74;100930.25;1088751;39;20540;-76
2021/10/14 05:53:37;;;;;;;9.20;6.20;;;;;;;5.92;83.80;100933.28;1087748;54;20035;-76
2021/10/14 05:54:42;;;;;;;8.93;6.57;;;;;;;5.86;83.63;100937.19;1087637;54;20098;-76
2021/10/14 05:55:48;;;;;;;10.77;6.10;;;;;;;5.93;83.48;100935.00;1087742;54;20069;-76
2021/10/14 05:56:52;;;;;;;9.40;6.13;;;;;;;5.91;83.54;100940.38;1087761;54;20042;-76
2021/10/14 05:57:53;;;;;;;9.02;5.78;;;;;;;6.04;83.33;100932.59;1087655;54;20611;-75
2021/10/14 05:58:57;;;;;;;9.70;5.68;;;;;;;6.02;83.42;100938.91;1088104;39;20610;-76
2021/10/14 06:00:00;;;;;;;7.93;5.63;;;;;;;5.99;83.11;100939.09;1087781;54;20041;-76
2021/10/14 06:01:04;;;;;;;10.77;6.30;;;;;;;5.96;83.16;100936.63;1088000;54;20034;-76
2021/10/14 06:02:07;;;;;;;8.90;5.57;;;;;;;5.99;83.14;100934.66;1088005;54;20034;-75
2021/10/14 06:03:11;;;;;;;10.45;6.30;;;;;;;5.98;83.30;100942.69;1089123;46;20037;-76
2021/10/14 06:04:12;;;;;;;11.98;5.82;;;;;;;6.02;83.08;100938.91;1087946;54;20041;-76
2021/10/14 06:05:17;;;;;;;8.00;5.65;;;;;;;6.03;83.23;100933.53;1087687;54;20042;-76
2021/10/14 06:06:18;;;;;;;9.93;6.32;;;;;;;5.96;83.35;100940.09;1087839;54;20034;-76
2021/10/14 06:07:22;;;;;;;10.45;5.88;;;;;;;5.92;83.59;100938.59;1087907;54;20042;-76
2021/10/14 06:08:25;;;;;;;8.60;5.60;;;;;;;5.81;83.92;100935.75;1088059;54;20034;-75
2021/10/14 06:09:29;;;;;;;9.75;6.15;;;;;;;5.88;83.75;100932.63;1089066;46;20050;-75
2021/10/14 06:10:31;;;;;;;15.05;7.60;;;;;;;5.84;83.81;100940.88;1088017;54;20018;-76
2021/10/14 06:11:37;;;;;;;10.07;7.65;;;;;;;5.85;83.84;100931.97;1087930;54;20123;-76
2021/10/14 06:12:39;;;;;;;12.82;8.40;;;;;;;5.82;83.90;100932.16;1087668;54;20038;-76
2021/10/14 06:13:43;;;;;;;10.57;6.85;;;;;;;5.82;84.12;100934.78;1090336;39;20947;-76
2021/10/14 06:14:45;;;;;;;14.35;7.47;;;;;;;5.81;83.98;100931.28;1087822;54;20050;-76
2021/10/14 06:15:49;;;;;;;10.13;6.80;;;;;;;5.85;83.80;100931.97;1087743;54;20095;-76
2021/10/14 06:16:50;;;;;;;11.25;6.90;;;;;;;5.83;83.97;100936.50;1087564;54;20042;-76
2021/10/14 06:17:55;;;;;;;9.23;6.65;;;;;;;5.89;83.73;100929.03;1087619;54;20032;-76
2021/10/14 06:18:56;;;;;;;11.20;7.22;;;;;;;5.93;83.68;100927.03;1087481;54;20057;-76
2021/10/14 06:20:00;;;;;;;10.65;7.20;;;;;;;5.99;83.42;100929.34;1087609;54;20034;-76
2021/10/14 06:21:02;;;;;;;14.60;7.78;;;;;;;5.97;83.41;100931.19;1087648;54;20041;-76
2021/10/14 06:22:06;;;;;;;12.73;7.53;;;;;;;6.05;83.40;100931.63;1087445;54;20045;-75
2021/10/14 06:23:08;;;;;;;13.07;8.98;;;;;;;5.98;83.17;100929.41;1087436;54;20634;-75
2021/10/14 06:24:14;;;;;;;11.23;7.57;;;;;;;5.99;83.45;100929.34;1087425;54;20642;-75
2021/10/14 06:25:15;;;;;;;10.52;7.22;;;;;;;6.09;83.26;100938.47;1087598;54;20038;-75
2021/10/14 06:26:19;;;;;;;11.55;7.38;;;;;;;6.15;82.93;100928.41;1087566;54;20073;-75
2021/10/14 06:27:23;;;;;;;12.05;7.95;;;;;;;6.16;82.66;100932.75;1087639;54;20037;-76
2021/10/14 06:28:27;;;;;;;10.27;7.55;;;;;;;6.20;82.83;100932.47;1087639;54;20053;-75
2021/10/14 06:29:29;;;;;;;13.32;7.85;;;;;;;6.12;83.11;100929.44;1087541;54;20046;-76
2021/10/14 06:30:33;;;;;;;10.23;7.05;;;;;;;6.23;82.71;100934.94;1087629;54;20038;-75
2021/10/14 06:31:37;;;;;;;10.70;7.05;;;;;;;6.32;82.38;100936.19;1087590;54;20054;-76
2021/10/14 06:32:42;;;;;;;11.30;7.75;;;;;;;6.32;82.23;100936.19;1087701;54;20042;-77
2021/10/14 06:33:46;;;;;;;9.15;6.88;;;;;;;6.40;82.21;100935.69;1087658;54;20031;-76
2021/10/14 06:34:47;;;;;;;8.98;6.28;;;;;;;6.50;81.96;100936.00;1087554;54;20034;-76
2021/10/14 06:35:52;;;;;;;9.73;6.05;;;;;;;6.51;81.71;100937.69;1087593;54;20746;-76
2021/10/14 06:36:53;;;;;;;8.18;5.65;;;;;;;6.64;81.48;100938.63;1087663;54;20060;-76
2021/10/14 06:37:58;;;;;;;8.52;5.75;;;;;;;6.70;81.35;100946.22;1087569;54;20034;-75
2021/10/14 06:39:00;;;;;;;10.50;6.13;;;;;;;6.63;81.07;100938.72;1087964;39;20557;-76
2021/10/14 06:40:04;;;;;;;8.98;5.75;;;;;;;6.60;81.18;100939.78;1087250;54;20651;-76
2021/10/14 06:41:06;;;;;;;9.23;5.32;;;;;;;6.63;81.16;100950.19;1087325;54;20037;-77
2021/10/14 06:42:10;;;;;;;7.65;5.32;;;;;;;6.83;80.46;100945.41;1087598;54;20057;-76
2021/10/14 06:43:17;;;;;;;9.23;5.43;;;;;;;6.87;80.10;100947.78;1087643;54;20066;-76
2021/10/14 06:44:19;;;;;;;9.95;5.70;;;;;;;6.75;80.66;100942.41;1087203;54;20035;-76
2021/10/14 06:45:23;;;;;;;8.77;6.10;;;;;;;6.76;80.55;100950.25;1087328;54;20034;-76
2021/10/14 06:46:24;;;;;;;9.85;6.18;;;;;;;6.72;80.79;100944.28;1087419;54;20089;-76
2021/10/14 06:47:28;;;;;;;9.98;5.50;;;;;;;6.81;80.40;100947.31;1087469;54;20065;-76
2021/10/14 06:48:30;;;;;;;9.75;6.07;;;;;;;6.75;80.18;100947.72;1087520;54;20034;-75
2021/10/14 06:49:34;;;;;;;12.50;6.40;;;;;;;6.87;80.35;100941.63;1087615;54;20918;-75
2021/10/14 06:50:36;;;;;;;12.40;6.00;;;;;;;6.98;79.85;100949.75;1087234;54;20040;-76
2021/10/14 06:51:40;;;;;;;9.18;5.57;;;;;;;7.01;79.69;100946.03;1087438;54;20635;-76
2021/10/14 06:52:42;;;;;;;9.38;6.00;;;;;;;7.02;79.66;100945.94;1087623;54;20046;-75
2021/10/14 06:53:46;;;;;;;9.43;6.32;;;;;;;7.02;79.87;100945.94;1088553;39;20515;-76
2021/10/14 06:54:47;;;;;;;7.55;5.22;;;;;;;7.16;79.67;100952.16;1087323;54;20026;-76
2021/10/14 06:55:52;;;;;;;7.40;5.07;;;;;;;7.25;79.07;100940.91;1090501;39;20531;-76
2021/10/14 06:56:56;;;;;;;7.78;5.15;;;;;;;7.25;78.94;100948.91;1087581;54;20061;-76
2021/10/14 06:57:57;;;;;;;9.52;5.68;;;;;;;7.19;79.39;100941.31;1087490;54;20038;-76
2021/10/14 06:59:04;;;;;;;8.88;6.38;;;;;;;7.09;79.73;100943.72;1087759;39;20822;-76
2021/10/14 07:00:11;;;;;;;10.07;5.70;;;;;;;7.31;79.22;100944.97;1087552;54;20070;-76
2021/10/14 07:01:13;;;;;;;10.90;6.35;;;;;;;7.42;78.81;100936.28;1087677;54;20034;-78
2021/10/14 07:02:18;;;;;;;10.05;5.00;;;;;;;7.52;78.54;100941.81;1087693;54;20044;-77
2021/10/14 07:03:20;;;;;;;8.00;4.97;;;;;;;7.56;78.09;100946.00;1087851;39;20484;-76
2021/10/14 07:04:24;;;;;;;7.57;4.80;;;;;;;7.62;77.83;100941.13;1087485;54;20038;-76
2021/10/14 07:05:27;;;;;;;7.18;4.28;;;;;;;7.65;77.89;100945.38;1087067;54;20042;-75
2021/10/14 07:06:32;;;;;;;9.07;5.57;;;;;;;7.42;78.01;100946.91;1087067;54;20046;-76
2021/10/14 07:07:33;;;;;;;11.35;5.30;;;;;;;7.50;77.98;100941.94;1087213;54;20042;-75
2021/10/14 07:08:37;;;;;;;8.10;5.05;;;;;;;7.60;77.78;100945.69;1087418;39;20541;-76
2021/10/14 07:09:39;;;;;;;7.05;4.70;;;;;;;7.67;77.49;100948.78;1086850;54;20035;-76
2021/10/14 07:10:45;;;;;;;7.85;5.03;;;;;;;7.69;77.41;100943.34;1087254;54;20042;-75
2021/10/14 07:11:52;;;;;;;8.07;5.32;;;;;;;7.59;77.37;100949.28;1087393;54;20031;-75
2021/10/14 07:12:56;;;;;;;9.23;5.90;;;;;;;7.45;77.56;100946.72;1087683;54;20046;-75
2021/10/14 07:14:03;;;;;;;9.68;6.22;;;;;;;7.52;77.82;100945.34;1087671;54;21296;-75
2021/10/14 07:15:07;;;;;;;10.10;6.07;;;;;;;7.29;77.63;100944.22;1087404;54;20042;-76
2021/10/14 07:16:12;;;;;;;8.30;5.63;;;;;;;7.48;77.72;100947.38;1087393;54;20027;-76
2021/10/14 07:17:13;;;;;;;9.90;5.80;;;;;;;7.39;77.81;100944.44;1087605;54;20030;-76
2021/10/14 07:18:18;;;;;;;11.98;6.65;;;;;;;7.50;77.43;100939.28;1087523;54;20042;-76
2021/10/14 07:19:19;;;;;;;9.05;5.72;;;;;;;7.57;77.35;100940.56;1088778;46;20042;-76
2021/10/14 07:20:23;;;;;;;9.00;5.45;;;;;;;7.45;77.09;100941.41;1087688;54;20030;-77
2021/10/14 07:21:25;;;;;;;7.55;5.25;;;;;;;7.64;77.02;100941.00;1087814;54;20043;-76
2021/10/14 07:22:29;;;;;;;7.38;4.85;;;;;;;7.75;76.96;100943.78;1087662;54;20025;-76
2021/10/14 07:23:31;;;;;;;7.72;4.88;;;;;;;7.83;76.64;100953.94;1087660;54;20026;-76
2021/10/14 07:24:35;;;;;;;6.32;4.30;;;;;;;7.91;76.34;100940.94;1087638;54;20128;-77
2021/10/14 07:25:37;;;;;;;6.32;3.97;;;;;;;7.92;76.15;100939.13;1087342;54;20034;-76
2021/10/14 07:26:41;;;;;;;8.05;4.43;;;;;;;8.00;75.94;100938.59;1087469;54;20045;-76
2021/10/14 07:27:46;;;;;;;7.10;4.97;;;;;;;7.92;76.31;100942.66;1088102;39;20528;-76
2021/10/14 07:28:47;;;;;;;8.98;5.30;;;;;;;8.00;76.02;100942.09;1087178;54;20042;-77
2021/10/14 07:29:54;;;;;;;6.53;4.05;;;;;;;8.11;76.05;100942.22;1087329;54;20041;-77
2021/10/14 07:30:56;;;;;;;6.47;4.00;;;;;;;8.19;75.59;100949.69;1087037;54;20157;-77
2021/10/14 07:32:00;;;;;;;5.57;3.65;;;;;;;8.21;75.84;100955.75;1087015;54;20049;-77
2021/10/14 07:33:03;;;;;;;5.53;3.83;;;;;;;8.21;75.85;100953.09;1087002;54;20049;-77
2021/10/14 07:34:08;;;;;;;5.65;3.83;;;;;;;8.27;75.84;100957.97;1087147;54;20038;-77
2021/10/14 07:35:12;;;;;;;6.68;4.30;;;;;;;8.27;75.89;100954.44;1087044;54;20042;-77
2021/10/14 07:36:16;;;;;;;6.10;4.07;;;;;;;8.33;75.74;100955.81;1087240;54;20038;-77
2021/10/14 07:37:19;;;;;;;8.45;5.35;;;;;;;8.06;76.38;100951.47;1087599;46;20038;-76
2021/10/14 07:38:23;;;;;;;10.82;5.20;;;;;;;8.00;76.81;100952.75;1087861;46;20035;-77
2021/10/14 07:39:25;;;;;;;8.63;5.40;;;;;;;7.98;76.69;100954.69;1087234;54;20042;-76
2021/10/14 07:40:29;;;;;;;9.52;5.00;;;;;;;7.87;76.93;100955.41;1087142;54;20039;-77
2021/10/14 07:41:34;;;;;;;8.23;5.43;;;;;;;7.77;77.55;100957.00;1087068;54;20062;-77
2021/10/14 07:42:35;;;;;;;7.57;4.95;;;;;;;7.71;77.46;100957.41;1087266;54;20030;-77
2021/10/14 07:43:40;;;;;;;7.80;4.65;;;;;;;7.72;77.69;100959.97;1087303;54;20038;-76
2021/10/14 07:44:44;;;;;;;8.13;5.28;;;;;;;7.78;77.30;100961.34;1087113;54;20042;-77
2021/10/14 07:45:49;;;;;;;10.00;6.07;;;;;;;7.76;77.44;100952.63;1087261;54;20042;-77
2021/10/14 07:46:53;;;;;;;9.20;5.35;;;;;;;7.77;77.22;100947.22;1087288;54;20038;-76
2021/10/14 07:47:54;;;;;;;7.47;5.30;;;;;;;7.94;77.26;100946.03;1087047;54;20054;-76
2021/10/14 07:48:58;;;;;;;8.20;4.63;;;;;;;7.94;76.93;100946.03;1086966;54;20084;-76
2021/10/14 07:50:00;;;;;;;8.82;5.85;;;;;;;7.85;77.28;100952.00;1087085;54;20050;-75
2021/10/14 07:51:04;;;;;;;7.90;5.18;;;;;;;7.89;77.04;100956.16;1086870;54;20037;-76
2021/10/14 07:52:06;;;;;;;9.85;4.95;;;;;;;8.06;76.87;100944.34;1087060;54;20042;-76
2021/10/14 07:53:15;;;;;;;9.27;5.30;;;;;;;8.04;76.72;100948.06;1086978;54;20658;-76
2021/10/14 07:54:20;;;;;;;7.53;5.28;;;;;;;7.95;77.18;100953.06;1087146;54;20045;-75
2021/10/14 07:55:21;;;;;;;9.13;4.97;;;;;;;7.96;77.08;100949.44;1086794;54;20038;-76
2021/10/14 07:56:26;;;;;;;10.70;4.97;;;;;;;8.01;77.33;100958.94;1086846;54;20034;-76
2021/10/14 07:57:27;;;;;;;9.60;5.20;;;;;;;8.18;76.57;100957.75;1087225;54;20529;-76
2021/10/14 07:58:31;;;;;;;9.45;5.47;;;;;;;8.18;76.67;100961.28;1087057;54;20030;-76
2021/10/14 07:59:33;;;;;;;9.75;5.38;;;;;;;8.12;76.96;100964.38;1087092;54;20038;-76
2021/10/14 08:00:37;;;;;;;9.27;5.55;;;;;;;8.13;76.98;100952.75;1087123;54;20031;-75
2021/10/14 08:01:44;;;;;;;11.10;5.25;;;;;;;8.14;76.91;100959.78;1086934;54;20031;-76
2021/10/14 08:02:45;;;;;;;10.70;5.55;;;;;;;8.13;76.92;100950.09;1087016;54;20047;-76
2021/10/14 08:03:50;;;;;;;8.25;5.45;;;;;;;8.15;76.68;100958.00;1087054;54;20034;-76
2021/10/14 08:04:55;;;;;;;11.80;5.10;;;;;;;8.21;76.63;100962.88;1087183;54;20094;-76
2021/10/14 08:05:59;;;;;;;8.00;4.88;;;;;;;8.36;76.28;100961.78;1087037;54;20035;-76
2021/10/14 08:07:00;;;;;;;7.75;4.80;;;;;;;8.37;76.37;100960.00;1088265;46;20026;-76
2021/10/14 08:08:05;;;;;;;8.95;5.60;;;;;;;8.33;76.46;100963.81;1087274;54;20030;-76
2021/10/14 08:09:06;;;;;;;8.32;4.63;;;;;;;8.56;76.02;100957.75;1086994;54;20042;-77
2021/10/14 08:10:11;;;;;;;7.50;4.43;;;;;;;8.68;75.73;100958.69;1086923;54;20035;-76
2021/10/14 08:11:12;;;;;;;8.13;4.35;;;;;;;8.76;75.17;100958.16;1086853;54;20038;-76
2021/10/14 08:12:16;;;;;;;9.05;4.57;;;;;;;8.82;74.89;100956.84;1086679;54;20030;-76
2021/10/14 08:13:21;;;;;;;7.28;4.57;;;;;;;8.90;74.72;100957.16;1086906;54;20038;-76
2021/10/14 08:14:25;;;;;;;7.00;4.10;;;;;;;8.98;74.38;100954.78;1087053;54;20034;-77
2021/10/14 08:15:26;;;;;;;8.13;4.28;;;;;;;9.03;74.42;100949.09;1086978;54;20061;-76
2021/10/14 08:16:30;;;;;;;7.47;4.03;;;;;;;9.08;74.13;100946.94;1087006;54;20047;-77
2021/10/14 08:17:35;;;;;;;7.78;4.57;;;;;;;9.12;74.18;100955.56;1087236;54;20046;-77
2021/10/14 08:18:39;;;;;;;6.40;4.20;;;;;;;9.15;74.06;100944.66;1087045;54;20035;-76
2021/10/14 08:19:40;;;;;;;9.52;4.78;;;;;;;9.09;73.73;100945.97;1087229;39;20511;-76
2021/10/14 08:20:45;;;;;;;7.80;4.00;;;;;;;9.18;73.49;100953.28;1088752;47;20037;-76
2021/10/14 08:21:46;;;;;;;6.68;4.03;;;;;;;9.19;73.65;100949.66;1086945;54;20035;-77
2021/10/14 08:22:51;;;;;;;6.40;4.10;;;;;;;9.25;73.33;100943.03;1086957;54;20038;-76
2021/10/14 08:23:53;;;;;;;9.00;4.35;;;;;;;9.32;73.40;100954.09;1086786;54;20065;-76
2021/10/14 08:24:58;;;;;;;8.18;5.25;;;;;;;9.08;73.92;100948.75;1086685;54;20619;-75
2021/10/14 08:26:00;;;;;;;11.20;5.65;;;;;;;8.98;74.18;100943.22;1086687;54;20042;-76
2021/10/14 08:27:05;;;;;;;10.57;5.72;;;;;;;8.96;74.40;100950.53;1087047;54;20049;-76
2021/10/14 08:28:06;;;;;;;13.93;6.15;;;;;;;8.78;74.80;100953.56;1086763;54;20042;-76
2021/10/14 08:29:11;;;;;;;10.05;5.18;;;;;;;8.95;74.70;100948.81;1086671;54;20061;-76
2021/10/14 08:30:14;;;;;;;7.28;4.40;;;;;;;9.17;74.24;100948.09;1086523;54;20042;-76
2021/10/14 08:31:18;;;;;;;8.25;5.57;;;;;;;9.15;74.03;100950.88;1086702;54;20126;-76
2021/10/14 08:32:20;;;;;;;7.45;4.53;;;;;;;8.97;74.22;100950.41;1086938;54;20042;-76
2021/10/14 08:33:26;;;;;;;7.95;4.30;;;;;;;9.03;74.01;100947.28;1087408;54;20041;-75
2021/10/14 08:34:28;;;;;;;6.35;4.43;;;;;;;9.14;74.04;100949.16;1086981;54;20650;-76
2021/10/14 08:35:35;;;;;;;7.95;4.95;;;;;;;9.03;73.82;100951.75;1086843;54;20060;-76
2021/10/14 08:36:40;;;;;;;7.95;4.93;;;;;;;9.13;73.53;100947.47;1086963;54;20042;-76
2021/10/14 08:37:42;;;;;;;7.55;4.60;;;;;;;9.35;73.11;100943.19;1086733;54;20038;-76
2021/10/14 08:38:47;;;;;;;10.15;4.68;;;;;;;9.18;73.51;100950.63;1086941;47;20030;-76
2021/10/14 08:39:52;;;;;;;8.18;4.95;;;;;;;9.38;73.14;100942.13;1087111;54;20034;-76
2021/10/14 08:40:56;;;;;;;8.57;4.78;;;;;;;9.35;73.00;100940.53;1086927;54;20061;-76
2021/10/14 08:41:58;;;;;;;10.07;5.30;;;;;;;9.25;72.94;100939.50;1086821;47;20057;-76
2021/10/14 08:43:05;;;;;;;8.98;4.47;;;;;;;9.48;72.95;100937.78;1087518;39;20504;-76
2021/10/14 08:44:10;;;;;;;7.70;4.70;;;;;;;9.46;72.96;100943.22;1087016;54;20035;-76
2021/10/14 08:45:12;;;;;;;8.38;5.07;;;;;;;9.60;72.51;100938.66;1086618;54;20039;-76
2021/10/14 08:46:17;;;;;;;7.05;4.53;;;;;;;9.66;72.16;100943.53;1086878;54;20081;-76
2021/10/14 08:47:18;;;;;;;10.73;4.65;;;;;;;9.47;72.56;100944.94;1087052;54;20034;-76